createdAt,value
2023-04-27T00:00:19.702Z,6.59
2023-04-27T00:02:49.706Z,6.62
2023-04-27T00:05:18.758Z,6.53
2023-04-27T00:07:48.872Z,6.41
2023-04-27T00:10:21.463Z,6.39
2023-04-27T00:12:56.511Z,6.36
2023-04-27T00:15:28.964Z,6.26
2023-04-27T00:17:57.818Z,6.22
2023-04-27T00:20:26.710Z,6.20
2023-04-27T00:22:58.864Z,6.20
2023-04-27T00:25:27.002Z,6.22
2023-04-27T00:27:57.333Z,6.21
2023-04-27T00:30:27.065Z,6.32
2023-04-27T00:32:57.161Z,6.35
2023-04-27T00:35:25.723Z,6.34
2023-04-27T00:37:58.000Z,6.34
2023-04-27T00:40:25.739Z,6.38
2023-04-27T00:42:53.661Z,6.47
2023-04-27T00:45:27.848Z,6.45
2023-04-27T00:47:57.576Z,6.40
2023-04-27T00:50:31.403Z,6.29
2023-04-27T00:52:59.850Z,6.37
2023-04-27T00:55:28.291Z,6.38
2023-04-27T00:57:56.521Z,6.38
2023-04-27T01:00:27.996Z,6.33
2023-04-27T01:02:59.066Z,6.25
2023-04-27T01:05:28.887Z,6.20
2023-04-27T01:07:58.049Z,6.12
2023-04-27T01:10:26.955Z,6.13
2023-04-27T01:12:57.907Z,6.14
2023-04-27T01:15:29.293Z,5.98
2023-04-27T01:18:02.345Z,6.06
2023-04-27T01:20:32.945Z,5.91
2023-04-27T01:23:03.775Z,5.96
2023-04-27T01:25:35.843Z,5.73
2023-04-27T01:28:04.304Z,5.74
2023-04-27T01:30:32.050Z,5.76
2023-04-27T01:33:01.938Z,5.67
2023-04-27T01:35:32.067Z,5.68
2023-04-27T01:38:01.824Z,5.80
2023-04-27T01:40:29.679Z,5.77
2023-04-27T01:42:58.785Z,5.76
2023-04-27T01:45:27.086Z,5.65
2023-04-27T01:47:56.931Z,5.74
2023-04-27T01:50:25.344Z,5.78
2023-04-27T01:52:53.992Z,5.76
2023-04-27T01:55:22.327Z,5.78
2023-04-27T01:57:51.110Z,5.67
2023-04-27T02:00:21.402Z,5.71
2023-04-27T02:02:55.952Z,5.68
2023-04-27T02:05:24.065Z,5.68
2023-04-27T02:07:52.297Z,5.71
2023-04-27T02:10:23.850Z,5.66
2023-04-27T02:12:55.136Z,5.71
2023-04-27T02:15:27.138Z,5.65
2023-04-27T02:17:55.089Z,5.60
2023-04-27T02:20:26.714Z,5.68
2023-04-27T02:22:56.545Z,5.70
2023-04-27T02:25:28.896Z,5.66
2023-04-27T02:27:57.142Z,5.55
2023-04-27T02:30:28.253Z,5.60
2023-04-27T02:33:05.814Z,5.50
2023-04-27T02:35:33.814Z,5.56
2023-04-27T02:38:01.866Z,5.55
2023-04-27T02:40:30.158Z,5.58
2023-04-27T02:43:08.676Z,5.62
2023-04-27T02:45:41.990Z,5.61
2023-04-27T02:48:10.128Z,5.50
2023-04-27T02:50:43.024Z,5.59
2023-04-27T02:53:13.939Z,5.63
2023-04-27T02:55:48.612Z,5.48
2023-04-27T02:58:20.176Z,5.61
2023-04-27T03:00:57.397Z,5.58
2023-04-27T03:03:27.331Z,5.56
2023-04-27T03:06:01.169Z,5.62
2023-04-27T03:08:29.235Z,5.54
2023-04-27T03:11:02.007Z,5.46
2023-04-27T03:13:31.493Z,5.52
2023-04-27T03:16:01.532Z,5.46
2023-04-27T03:18:30.761Z,5.44
2023-04-27T03:21:08.268Z,5.48
2023-04-27T03:23:36.230Z,5.41
2023-04-27T03:26:07.816Z,5.37
2023-04-27T03:28:37.402Z,5.40
2023-04-27T03:31:09.733Z,5.42
2023-04-27T03:33:44.261Z,5.39
2023-04-27T03:36:12.715Z,5.35
2023-04-27T03:38:41.101Z,5.30
2023-04-27T03:41:10.936Z,5.20
2023-04-27T03:43:38.967Z,5.23
2023-04-27T03:46:14.140Z,5.21
2023-04-27T03:48:48.136Z,5.29
2023-04-27T03:51:18.853Z,5.35
2023-04-27T03:53:46.757Z,5.28
2023-04-27T03:56:14.739Z,5.29
2023-04-27T03:58:44.863Z,5.17
2023-04-27T04:01:18.170Z,5.27
2023-04-27T04:03:48.757Z,5.33
2023-04-27T04:06:25.882Z,5.33
2023-04-27T04:09:00.229Z,5.34
2023-04-27T04:11:31.027Z,5.32
2023-04-27T04:13:58.931Z,5.29
2023-04-27T04:16:28.658Z,5.39
2023-04-27T04:19:00.618Z,5.40
2023-04-27T04:21:30.184Z,5.36
2023-04-27T04:23:59.537Z,5.34
2023-04-27T04:26:27.794Z,5.45
2023-04-27T04:28:58.108Z,5.43
2023-04-27T04:31:27.913Z,5.46
2023-04-27T04:34:04.304Z,5.47
2023-04-27T04:36:34.587Z,5.40
2023-04-27T04:39:03.514Z,5.37
2023-04-27T04:41:33.465Z,5.40
2023-04-27T04:44:03.002Z,5.52
2023-04-27T04:46:31.897Z,5.60
2023-04-27T04:49:05.125Z,5.49
2023-04-27T04:51:34.618Z,5.49
2023-04-27T04:54:03.187Z,5.34
2023-04-27T04:56:34.492Z,5.40
2023-04-27T04:59:07.697Z,5.49
2023-04-27T05:01:48.528Z,5.53
2023-04-27T05:04:19.202Z,5.51
2023-04-27T05:06:52.070Z,5.64
2023-04-27T05:09:22.965Z,5.49
2023-04-27T05:11:54.728Z,5.53
2023-04-27T05:14:25.390Z,5.62
2023-04-27T05:16:54.183Z,5.50
2023-04-27T05:19:27.785Z,5.71
2023-04-27T05:22:10.911Z,5.59
2023-04-27T05:24:42.453Z,5.67
2023-04-27T05:27:12.898Z,5.85
2023-04-27T05:29:51.966Z,5.84
2023-04-27T05:32:20.753Z,5.99
2023-04-27T05:34:55.681Z,6.03
2023-04-27T05:37:37.710Z,6.15
2023-04-27T05:40:10.709Z,6.40
2023-04-27T05:42:49.219Z,6.31
2023-04-27T05:45:27.030Z,6.37
2023-04-27T05:48:02.586Z,6.47
2023-04-27T05:50:34.746Z,6.48
2023-04-27T05:53:08.369Z,6.52
2023-04-27T05:55:40.545Z,6.58
2023-04-27T05:58:09.630Z,6.67
2023-04-27T06:00:38.702Z,6.76
2023-04-27T06:03:06.795Z,6.96
2023-04-27T06:05:36.444Z,6.82
2023-04-27T06:08:04.566Z,6.92
2023-04-27T06:10:34.465Z,7.05
2023-04-27T06:13:03.874Z,6.97
2023-04-27T06:15:31.811Z,6.98
2023-04-27T06:17:59.628Z,7.21
2023-04-27T06:20:27.468Z,7.22
2023-04-27T06:22:57.829Z,7.46
2023-04-27T06:25:27.441Z,7.42
2023-04-27T06:27:55.442Z,7.86
2023-04-27T06:30:23.655Z,8.12
2023-04-27T06:32:51.522Z,8.37
2023-04-27T06:35:19.848Z,8.67
2023-04-27T06:37:47.952Z,8.09
2023-04-27T06:40:17.074Z,8.53
2023-04-27T06:42:44.722Z,8.38
2023-04-27T06:45:12.959Z,8.76
2023-04-27T06:47:40.712Z,8.36
2023-04-27T06:50:09.047Z,8.59
2023-04-27T06:52:37.020Z,8.64
2023-04-27T06:55:05.161Z,8.70
2023-04-27T06:57:34.338Z,8.31
2023-04-27T07:00:02.072Z,8.37
2023-04-27T07:02:29.780Z,8.72
2023-04-27T07:04:57.504Z,8.27
2023-04-27T07:07:25.374Z,8.14
2023-04-27T07:09:53.052Z,8.47
2023-04-27T07:12:20.967Z,8.61
2023-04-27T07:14:51.254Z,8.75
2023-04-27T07:17:19.173Z,9.19
2023-04-27T07:19:46.797Z,9.57
2023-04-27T07:22:16.000Z,9.75
2023-04-27T07:24:43.998Z,10.08
2023-04-27T07:27:11.699Z,10.21
2023-04-27T07:29:39.457Z,10.39
2023-04-27T07:32:09.618Z,10.78
2023-04-27T07:34:51.940Z,10.50
2023-04-27T07:37:20.981Z,10.16
2023-04-27T07:39:50.156Z,10.06
2023-04-27T07:42:18.471Z,11.15
2023-04-27T07:44:46.366Z,11.81
2023-04-27T07:47:15.837Z,11.61
2023-04-27T07:49:45.542Z,12.50
2023-04-27T07:52:13.618Z,12.92
2023-04-27T07:54:41.837Z,13.76
2023-04-27T07:57:11.643Z,13.32
2023-04-27T07:59:40.260Z,12.56
2023-04-27T08:02:19.229Z,13.18
2023-04-27T08:04:49.815Z,13.93
2023-04-27T08:07:18.096Z,14.72
2023-04-27T08:09:46.468Z,14.35
2023-04-27T08:12:14.205Z,15.61
2023-04-27T08:14:42.076Z,15.30
2023-04-27T08:17:09.829Z,15.03
2023-04-27T08:19:37.503Z,16.70
2023-04-27T08:22:06.695Z,17.93
2023-04-27T08:24:34.715Z,19.15
2023-04-27T08:27:03.437Z,18.14
2023-04-27T08:29:31.355Z,19.29
2023-04-27T08:32:00.888Z,18.91
2023-04-27T08:34:28.780Z,19.57
2023-04-27T08:36:56.845Z,20.62
2023-04-27T08:39:26.219Z,21.39
2023-04-27T08:41:54.245Z,22.39
2023-04-27T08:44:21.958Z,23.20
2023-04-27T08:46:50.796Z,24.33
2023-04-27T08:49:18.879Z,23.16
2023-04-27T08:51:46.860Z,23.47
2023-04-27T08:54:14.544Z,22.72
2023-04-27T08:56:43.625Z,21.35
2023-04-27T08:59:16.550Z,22.58
2023-04-27T09:01:45.944Z,21.38
2023-04-27T09:04:13.779Z,23.41
2023-04-27T09:06:42.178Z,25.53
2023-04-27T09:09:11.469Z,23.43
2023-04-27T09:11:40.452Z,24.90
2023-04-27T09:14:19.588Z,22.91
2023-04-27T09:16:47.831Z,24.49
2023-04-27T09:19:25.369Z,25.65
2023-04-27T09:22:03.764Z,24.12
2023-04-27T09:24:31.595Z,23.46
2023-04-27T09:27:00.809Z,23.97
2023-04-27T09:30:08.692Z,23.32
2023-04-27T09:32:36.519Z,22.94
2023-04-27T09:35:05.635Z,23.30
2023-04-27T09:37:33.356Z,20.71
2023-04-27T09:40:04.361Z,21.95
2023-04-27T09:42:32.934Z,22.03
2023-04-27T09:45:02.691Z,24.59
2023-04-27T09:47:31.638Z,22.12
2023-04-27T09:50:01.337Z,21.66
2023-04-27T09:52:29.041Z,24.73
2023-04-27T09:55:00.369Z,26.12
2023-04-27T09:57:37.133Z,26.12
2023-04-27T10:00:20.950Z,24.66
2023-04-27T10:03:04.264Z,24.37
2023-04-27T10:05:52.839Z,22.61
2023-04-27T10:08:22.625Z,21.66
2023-04-27T10:10:51.905Z,21.90
2023-04-27T10:13:24.580Z,21.74
2023-04-27T10:15:54.045Z,20.67
2023-04-27T10:18:30.714Z,20.58
2023-04-27T10:21:10.384Z,20.04
2023-04-27T10:23:48.453Z,19.25
2023-04-27T10:26:23.957Z,19.50
2023-04-27T10:29:07.215Z,19.28
2023-04-27T10:31:36.808Z,19.82
2023-04-27T10:34:09.848Z,20.73
2023-04-27T10:36:38.372Z,20.94
2023-04-27T10:39:17.019Z,22.17
2023-04-27T10:41:52.554Z,22.35
2023-04-27T10:44:21.259Z,20.82
2023-04-27T10:46:54.449Z,20.97
2023-04-27T10:49:22.659Z,21.48
2023-04-27T10:51:52.169Z,21.57
2023-04-27T10:54:20.179Z,20.89
2023-04-27T10:56:48.327Z,20.76
2023-04-27T10:59:16.053Z,20.91
2023-04-27T11:01:44.176Z,20.25
2023-04-27T11:04:13.507Z,21.09
2023-04-27T11:06:46.780Z,20.44
2023-04-27T11:09:16.220Z,20.98
2023-04-27T11:11:47.763Z,20.46
2023-04-27T11:14:21.025Z,19.86
2023-04-27T11:16:48.919Z,20.47
2023-04-27T11:19:18.050Z,21.48
2023-04-27T11:21:47.067Z,21.91
2023-04-27T11:24:15.598Z,20.49
2023-04-27T11:26:43.569Z,20.13
2023-04-27T11:29:13.669Z,19.10
2023-04-27T11:31:43.734Z,19.29
2023-04-27T11:34:19.481Z,18.62
2023-04-27T11:37:07.242Z,17.92
2023-04-27T11:39:46.685Z,17.75
2023-04-27T11:42:22.708Z,18.65
2023-04-27T11:44:55.184Z,18.99
2023-04-27T11:47:23.562Z,19.44
2023-04-27T11:49:53.365Z,19.99
2023-04-27T11:52:21.375Z,20.39
2023-04-27T11:54:50.338Z,20.82
2023-04-27T11:57:18.098Z,21.26
2023-04-27T11:59:46.348Z,20.19
2023-04-27T12:02:14.124Z,19.96
2023-04-27T12:04:42.751Z,18.55
2023-04-27T12:07:12.276Z,19.47
2023-04-27T12:09:40.038Z,19.42
2023-04-27T12:12:08.631Z,19.44
2023-04-27T12:14:36.447Z,18.83
2023-04-27T12:17:04.230Z,18.77
2023-04-27T12:19:32.001Z,18.87
2023-04-27T12:21:59.929Z,19.45
2023-04-27T12:24:29.386Z,19.36
2023-04-27T12:26:58.024Z,18.71
2023-04-27T12:29:26.042Z,18.87
2023-04-27T12:31:54.621Z,18.81
2023-04-27T12:34:22.602Z,18.58
2023-04-27T12:36:50.583Z,17.92
2023-04-27T12:39:19.710Z,17.98
2023-04-27T12:41:49.741Z,18.30
2023-04-27T12:44:18.966Z,18.15
2023-04-27T12:46:48.233Z,17.76
2023-04-27T12:49:16.521Z,17.80
2023-04-27T12:51:45.719Z,18.12
2023-04-27T12:54:13.687Z,18.22
2023-04-27T12:56:41.885Z,18.20
2023-04-27T12:59:11.080Z,18.09
2023-04-27T13:01:38.911Z,18.12
2023-04-27T13:04:09.425Z,17.71
2023-04-27T13:06:38.171Z,17.10
2023-04-27T13:09:06.749Z,17.93
2023-04-27T13:11:34.449Z,17.67
2023-04-27T13:14:02.145Z,17.27
2023-04-27T13:16:31.227Z,17.72
2023-04-27T13:18:58.985Z,17.84
2023-04-27T13:21:26.696Z,17.72
2023-04-27T13:23:54.849Z,17.69
2023-04-27T13:26:22.529Z,17.90
2023-04-27T13:28:50.562Z,16.93
2023-04-27T13:31:18.346Z,17.03
2023-04-27T13:33:47.824Z,16.85
2023-04-27T13:36:15.462Z,16.94
2023-04-27T13:38:43.168Z,17.49
2023-04-27T13:41:11.177Z,17.72
2023-04-27T13:43:38.865Z,17.81
2023-04-27T13:46:07.513Z,17.63
2023-04-27T13:48:35.149Z,17.66
2023-04-27T13:51:04.185Z,17.90
2023-04-27T13:53:31.964Z,17.55
2023-04-27T13:55:59.733Z,17.38
2023-04-27T13:58:29.154Z,17.35
2023-04-27T14:00:57.297Z,17.04
2023-04-27T14:03:25.241Z,16.78
2023-04-27T14:05:53.118Z,16.73
2023-04-27T14:08:22.667Z,16.65
2023-04-27T14:10:50.724Z,16.62
2023-04-27T14:13:19.683Z,16.84
2023-04-27T14:15:48.550Z,17.14
2023-04-27T14:18:16.563Z,17.07
2023-04-27T14:20:46.498Z,16.88
2023-04-27T14:23:14.258Z,16.39
2023-04-27T14:25:43.447Z,16.57
2023-04-27T14:28:12.383Z,16.66
2023-04-27T14:30:40.160Z,16.55
2023-04-27T14:33:07.931Z,16.47
2023-04-27T14:35:37.045Z,16.62
2023-04-27T14:38:05.424Z,16.60
2023-04-27T14:40:33.513Z,16.76
2023-04-27T14:43:02.759Z,16.80
2023-04-27T14:45:39.672Z,16.21
2023-04-27T14:48:11.673Z,16.40
2023-04-27T14:50:40.225Z,16.48
2023-04-27T14:53:07.969Z,16.49
2023-04-27T14:55:36.532Z,16.67
2023-04-27T14:58:06.005Z,16.82
2023-04-27T15:00:33.785Z,16.75
2023-04-27T15:03:01.622Z,16.82
2023-04-27T15:05:29.439Z,16.55
2023-04-27T15:07:57.152Z,16.51
2023-04-27T15:10:24.810Z,16.57
2023-04-27T15:12:52.904Z,16.38
2023-04-27T15:15:21.969Z,16.23
2023-04-27T15:17:49.772Z,16.08
2023-04-27T15:20:20.157Z,16.07
2023-04-27T15:22:48.266Z,16.27
2023-04-27T15:25:16.106Z,16.39
2023-04-27T15:27:44.205Z,16.61
2023-04-27T15:30:12.751Z,16.62
2023-04-27T15:32:41.866Z,16.26
2023-04-27T15:35:10.483Z,16.38
2023-04-27T15:37:38.295Z,16.26
2023-04-27T15:40:10.487Z,16.28
2023-04-27T15:42:38.402Z,16.34
2023-04-27T15:45:09.749Z,16.22
2023-04-27T15:47:37.846Z,16.06
2023-04-27T15:50:08.676Z,16.14
2023-04-27T15:52:36.441Z,16.10
2023-04-27T15:55:05.451Z,16.19
2023-04-27T15:57:36.566Z,16.12
2023-04-27T16:00:10.235Z,16.08
2023-04-27T16:02:38.233Z,16.13
2023-04-27T16:05:08.851Z,16.01
2023-04-27T16:07:38.116Z,15.85
2023-04-27T16:10:08.015Z,15.94
2023-04-27T16:12:36.705Z,16.05
2023-04-27T16:15:04.897Z,16.06
2023-04-27T16:17:37.792Z,15.93
2023-04-27T16:20:09.539Z,15.79
2023-04-27T16:22:38.623Z,16.09
2023-04-27T16:25:10.869Z,15.79
2023-04-27T16:27:39.561Z,16.19
2023-04-27T16:30:08.767Z,16.34
2023-04-27T16:32:39.346Z,16.35
2023-04-27T16:35:12.797Z,15.95
2023-04-27T16:37:42.280Z,16.07
2023-04-27T16:40:34.048Z,16.00
2023-04-27T16:43:01.958Z,16.17
2023-04-27T16:45:29.738Z,16.07
2023-04-27T16:47:59.990Z,16.09
2023-04-27T16:50:34.101Z,16.08
2023-04-27T16:53:30.901Z,15.92
2023-04-27T16:56:00.411Z,15.85
2023-04-27T16:58:29.256Z,15.97
2023-04-27T17:00:58.352Z,16.00
2023-04-27T17:03:34.571Z,16.01
2023-04-27T17:06:05.024Z,15.97
2023-04-27T17:08:33.053Z,16.01
2023-04-27T17:11:00.885Z,16.06
2023-04-27T17:13:30.956Z,15.85
2023-04-27T17:15:59.032Z,15.71
2023-04-27T17:18:33.014Z,15.82
2023-04-27T17:21:02.550Z,15.83
2023-04-27T17:23:33.733Z,15.70
2023-04-27T17:26:02.227Z,15.68
2023-04-27T17:28:30.322Z,15.79
2023-04-27T17:30:58.393Z,15.79
2023-04-27T17:33:26.263Z,15.71
2023-04-27T17:35:54.435Z,15.63
2023-04-27T17:38:23.330Z,15.65
2023-04-27T17:40:53.869Z,15.62
2023-04-27T17:43:23.124Z,15.54
2023-04-27T17:45:51.680Z,15.46
2023-04-27T17:48:19.794Z,15.38
2023-04-27T17:50:47.971Z,15.32
2023-04-27T17:53:16.351Z,15.29
2023-04-27T17:55:45.489Z,15.23
2023-04-27T17:58:15.595Z,15.18
2023-04-27T18:00:45.011Z,15.15
2023-04-27T18:03:13.652Z,15.08
2023-04-27T18:05:42.549Z,14.94
2023-04-27T18:08:12.356Z,14.86
2023-04-27T18:10:40.388Z,14.80
2023-04-27T18:13:08.640Z,14.69
2023-04-27T18:15:45.924Z,14.59
2023-04-27T18:18:16.893Z,14.48
2023-04-27T18:20:47.700Z,14.40
2023-04-27T18:23:16.194Z,14.33
2023-04-27T18:25:44.358Z,14.21
2023-04-27T18:28:15.240Z,14.13
2023-04-27T18:30:44.383Z,14.12
2023-04-27T18:33:13.382Z,14.12
2023-04-27T18:35:41.422Z,14.13
2023-04-27T18:38:09.278Z,14.00
2023-04-27T18:40:38.060Z,14.04
2023-04-27T18:43:06.274Z,14.02
2023-04-27T18:45:34.491Z,14.05
2023-04-27T18:48:03.996Z,13.91
2023-04-27T18:50:32.974Z,13.85
2023-04-27T18:53:03.239Z,13.77
2023-04-27T18:55:31.506Z,13.73
2023-04-27T18:57:59.548Z,13.68
2023-04-27T19:00:28.643Z,13.67
2023-04-27T19:02:56.643Z,13.61
2023-04-27T19:05:26.614Z,13.55
2023-04-27T19:07:54.645Z,13.57
2023-04-27T19:10:22.433Z,13.49
2023-04-27T19:12:50.521Z,13.41
2023-04-27T19:15:18.349Z,13.42
2023-04-27T19:17:48.745Z,13.34
2023-04-27T19:20:20.569Z,13.31
2023-04-27T19:22:49.762Z,13.27
2023-04-27T19:25:18.085Z,13.24
2023-04-27T19:27:48.279Z,13.17
2023-04-27T19:30:17.305Z,13.08
2023-04-27T19:32:46.265Z,13.07
2023-04-27T19:35:16.686Z,13.05
2023-04-27T19:37:46.362Z,12.99
2023-04-27T19:40:18.769Z,12.92
2023-04-27T19:42:47.034Z,12.97
2023-04-27T19:45:17.974Z,12.91
2023-04-27T19:47:49.504Z,12.87
2023-04-27T19:50:21.088Z,12.75
2023-04-27T19:52:50.794Z,12.76
2023-04-27T19:55:20.519Z,12.70
2023-04-27T19:57:49.183Z,12.68
2023-04-27T20:00:21.556Z,12.65
2023-04-27T20:02:54.403Z,12.63
2023-04-27T20:05:22.955Z,12.56
2023-04-27T20:07:51.640Z,12.57
2023-04-27T20:10:22.682Z,12.49
2023-04-27T20:12:56.483Z,12.45
2023-04-27T20:15:25.721Z,12.38
2023-04-27T20:17:55.185Z,12.37
2023-04-27T20:20:23.856Z,12.32
2023-04-27T20:22:58.132Z,12.30
2023-04-27T20:25:28.466Z,12.34
2023-04-27T20:28:02.158Z,12.18
2023-04-27T20:30:31.983Z,11.95
2023-04-27T20:33:03.884Z,11.94
2023-04-27T20:35:34.778Z,11.98
2023-04-27T20:38:06.128Z,11.93
2023-04-27T20:40:39.218Z,11.85
2023-04-27T20:43:13.361Z,11.77
2023-04-27T20:45:42.858Z,11.82
2023-04-27T20:48:19.202Z,11.82
2023-04-27T20:50:55.442Z,11.80
2023-04-27T20:53:26.894Z,11.68
2023-04-27T20:55:59.134Z,11.69
2023-04-27T20:58:28.484Z,11.65
2023-04-27T21:00:56.329Z,11.50
2023-04-27T21:03:30.350Z,11.47
2023-04-27T21:05:59.017Z,11.55
2023-04-27T21:08:30.746Z,11.37
2023-04-27T21:11:02.193Z,11.35
2023-04-27T21:13:33.179Z,11.45
2023-04-27T21:16:05.596Z,11.41
2023-04-27T21:18:34.590Z,11.36
2023-04-27T21:21:02.926Z,11.25
2023-04-27T21:23:35.734Z,11.18
2023-04-27T21:26:17.213Z,11.01
2023-04-27T21:28:46.496Z,11.06
2023-04-27T21:31:14.848Z,11.09
2023-04-27T21:33:45.241Z,11.16
2023-04-27T21:36:13.843Z,11.16
2023-04-27T21:38:44.022Z,11.08
2023-04-27T21:41:13.633Z,11.08
2023-04-27T21:43:44.862Z,11.08
2023-04-27T21:46:12.838Z,11.04
2023-04-27T21:48:47.528Z,11.03
2023-04-27T21:51:18.441Z,10.84
2023-04-27T21:53:46.999Z,10.72
2023-04-27T21:56:17.178Z,10.72
2023-04-27T21:58:47.297Z,10.84
2023-04-27T22:01:15.152Z,10.74
2023-04-27T22:03:43.701Z,10.58
2023-04-27T22:06:14.566Z,10.62
2023-04-27T22:08:42.808Z,10.56
2023-04-27T22:11:12.545Z,10.48
2023-04-27T22:13:44.848Z,10.42
2023-04-27T22:16:14.643Z,10.41
2023-04-27T22:18:42.890Z,10.51
2023-04-27T22:21:15.349Z,10.52
2023-04-27T22:23:43.747Z,10.48
2023-04-27T22:26:11.471Z,10.59
2023-04-27T22:28:39.418Z,10.62
2023-04-27T22:31:08.834Z,10.53
2023-04-27T22:33:37.673Z,10.56
2023-04-27T22:36:05.884Z,10.56
2023-04-27T22:38:33.652Z,10.53
2023-04-27T22:41:03.436Z,10.41
2023-04-27T22:43:31.304Z,10.49
2023-04-27T22:45:59.234Z,10.45
2023-04-27T22:48:28.347Z,10.46
2023-04-27T22:50:56.083Z,10.40
2023-04-27T22:53:23.763Z,10.49
2023-04-27T22:55:51.464Z,10.40
2023-04-27T22:58:19.334Z,10.29
2023-04-27T23:00:47.108Z,10.37
2023-04-27T23:03:14.920Z,10.31
2023-04-27T23:05:44.089Z,10.31
2023-04-27T23:08:13.232Z,10.38
2023-04-27T23:10:40.962Z,10.29
2023-04-27T23:13:11.273Z,10.35
2023-04-27T23:15:39.547Z,10.25
2023-04-27T23:18:07.350Z,10.32
2023-04-27T23:20:35.287Z,10.36
2023-04-27T23:23:04.412Z,10.39
2023-04-27T23:25:32.937Z,10.36
2023-04-27T23:28:01.005Z,10.36
2023-04-27T23:30:29.749Z,10.23
2023-04-27T23:32:57.607Z,10.34
2023-04-27T23:35:27.791Z,10.36
2023-04-27T23:37:55.451Z,10.38
2023-04-27T23:40:24.687Z,10.31
2023-04-27T23:42:52.546Z,10.23
2023-04-27T23:45:20.811Z,10.21
2023-04-27T23:47:48.555Z,10.21
2023-04-27T23:50:16.726Z,10.31
2023-04-27T23:52:45.381Z,10.20
2023-04-27T23:55:13.228Z,10.08
2023-04-27T23:57:42.294Z,10.23
